createdAt,value
2018-11-10T00:01:02.058Z,75.88
2018-11-10T00:03:30.316Z,76.06
2018-11-10T00:05:58.478Z,75.78
2018-11-10T00:08:26.715Z,76.06
2018-11-10T00:10:54.804Z,76.16
2018-11-10T00:13:22.967Z,76.71
2018-11-10T00:15:51.127Z,76.58
2018-11-10T00:18:19.295Z,76.15
2018-11-10T00:20:47.459Z,76.12
2018-11-10T00:23:15.615Z,76.00
2018-11-10T00:25:43.783Z,76.63
2018-11-10T00:28:11.935Z,75.75
2018-11-10T00:30:40.082Z,75.53
2018-11-10T00:33:08.255Z,75.53
2018-11-10T00:35:36.445Z,76.21
2018-11-10T00:38:04.945Z,76.48
2018-11-10T00:40:33.128Z,76.09
2018-11-10T00:43:01.296Z,75.51
2018-11-10T00:45:29.468Z,75.68
2018-11-10T00:47:57.704Z,76.16
2018-11-10T00:50:25.860Z,75.64
2018-11-10T00:52:54.052Z,75.38
2018-11-10T00:55:22.190Z,75.52
2018-11-10T00:57:50.382Z,75.12
2018-11-10T01:00:18.543Z,75.44
2018-11-10T01:02:46.710Z,75.50
2018-11-10T01:05:14.875Z,76.02
2018-11-10T01:07:43.024Z,75.55
2018-11-10T01:10:12.643Z,76.58
2018-11-10T01:12:41.114Z,75.24
2018-11-10T01:15:11.519Z,75.19
2018-11-10T01:17:40.014Z,75.68
2018-11-10T01:20:09.128Z,76.08
2018-11-10T01:22:37.404Z,76.11
2018-11-10T01:25:06.091Z,75.50
2018-11-10T01:27:34.239Z,75.70
2018-11-10T01:30:02.399Z,75.72
2018-11-10T01:32:30.563Z,76.24
2018-11-10T01:34:58.727Z,75.17
2018-11-10T01:37:26.884Z,75.99
2018-11-10T01:39:55.044Z,75.55
2018-11-10T01:42:23.198Z,75.95
2018-11-10T01:44:51.359Z,75.40
2018-11-10T01:47:19.526Z,76.22
2018-11-10T01:49:47.695Z,75.29
2018-11-10T01:52:15.834Z,76.39
2018-11-10T01:54:44.021Z,75.42
2018-11-10T01:57:12.230Z,75.18
2018-11-10T01:59:40.447Z,75.21
2018-11-10T02:02:08.611Z,75.88
2018-11-10T02:04:36.772Z,75.90
2018-11-10T02:07:05.062Z,75.35
2018-11-10T02:09:33.243Z,75.18
2018-11-10T02:12:01.453Z,75.22
2018-11-10T02:14:29.602Z,75.87
2018-11-10T02:16:57.797Z,75.29
2018-11-10T02:19:25.967Z,75.45
2018-11-10T02:21:54.180Z,75.73
2018-11-10T02:24:22.350Z,75.31
2018-11-10T02:26:50.540Z,74.68
2018-11-10T02:29:18.685Z,74.72
2018-11-10T02:31:46.867Z,74.89
2018-11-10T02:34:15.066Z,74.88
2018-11-10T02:36:43.220Z,75.18
2018-11-10T02:39:11.380Z,74.53
2018-11-10T02:41:39.539Z,75.20
2018-11-10T02:44:07.697Z,75.10
2018-11-10T02:46:35.870Z,75.10
2018-11-10T02:49:04.028Z,74.80
2018-11-10T02:51:32.174Z,74.70
2018-11-10T02:54:00.318Z,74.34
2018-11-10T02:56:28.490Z,73.80
2018-11-10T02:58:56.721Z,73.37
2018-11-10T03:01:24.836Z,73.30
2018-11-10T03:03:52.986Z,73.29
2018-11-10T03:06:21.152Z,72.78
2018-11-10T03:08:49.332Z,73.63
2018-11-10T03:11:17.484Z,72.57
2018-11-10T03:13:45.656Z,72.93
2018-11-10T03:16:13.818Z,73.08
2018-11-10T03:18:41.962Z,72.15
2018-11-10T03:21:10.127Z,72.76
2018-11-10T03:23:38.291Z,72.57
2018-11-10T03:26:06.450Z,72.29
2018-11-10T03:28:34.611Z,72.37
2018-11-10T03:31:02.776Z,71.04
2018-11-10T03:33:30.956Z,71.59
2018-11-10T03:35:59.118Z,71.61
2018-11-10T03:38:27.279Z,71.20
2018-11-10T03:40:55.444Z,72.19
2018-11-10T03:43:23.614Z,72.12
2018-11-10T03:45:51.766Z,71.19
2018-11-10T03:48:19.919Z,71.30
2018-11-10T03:50:48.099Z,71.38
2018-11-10T03:53:16.259Z,71.82
2018-11-10T03:55:44.422Z,71.23
2018-11-10T03:58:12.586Z,71.81
2018-11-10T04:00:40.734Z,70.98
2018-11-10T04:03:08.895Z,72.07
2018-11-10T04:05:37.039Z,71.89
2018-11-10T04:08:05.602Z,70.75
2018-11-10T04:10:33.738Z,71.09
2018-11-10T04:13:01.904Z,71.35
2018-11-10T04:15:30.032Z,71.42
2018-11-10T04:17:58.192Z,71.43
2018-11-10T04:20:26.347Z,71.42
2018-11-10T04:22:54.516Z,70.71
2018-11-10T04:25:22.663Z,70.72
2018-11-10T04:27:50.842Z,70.71
2018-11-10T04:30:18.991Z,71.18
2018-11-10T04:32:47.199Z,70.31
2018-11-10T04:35:15.367Z,71.05
2018-11-10T04:37:43.516Z,70.41
2018-11-10T04:40:11.776Z,70.05
2018-11-10T04:42:40.366Z,70.93
2018-11-10T04:45:09.692Z,71.12
2018-11-10T04:47:38.358Z,70.81
2018-11-10T04:50:07.623Z,70.90
2018-11-10T04:52:35.779Z,70.15
2018-11-10T04:55:03.919Z,71.00
2018-11-10T04:57:32.067Z,70.50
2018-11-10T05:00:00.235Z,70.64
2018-11-10T05:02:28.375Z,70.39
2018-11-10T05:04:56.543Z,69.38
2018-11-10T05:07:24.699Z,69.22
2018-11-10T05:09:52.886Z,70.00
2018-11-10T05:12:21.027Z,69.21
2018-11-10T05:14:49.183Z,70.08
2018-11-10T05:17:17.362Z,69.48
2018-11-10T05:19:45.500Z,69.74
2018-11-10T05:22:13.687Z,68.92
2018-11-10T05:24:41.859Z,68.82
2018-11-10T05:27:10.026Z,69.54
2018-11-10T05:29:38.163Z,69.68
2018-11-10T05:32:06.343Z,69.89
2018-11-10T05:34:34.495Z,69.47
2018-11-10T05:37:02.662Z,69.55
2018-11-10T05:39:30.814Z,69.46
2018-11-10T05:41:58.983Z,70.41
2018-11-10T05:44:27.126Z,70.12
2018-11-10T05:46:55.270Z,70.54
2018-11-10T05:49:23.464Z,71.22
2018-11-10T05:51:51.596Z,72.19
2018-11-10T05:54:19.744Z,73.47
2018-11-10T05:56:47.899Z,73.71
2018-11-10T05:59:16.086Z,75.01
2018-11-10T06:01:44.297Z,75.63
2018-11-10T06:04:12.468Z,75.46
2018-11-10T06:06:40.616Z,76.03
2018-11-10T06:09:10.373Z,76.80
2018-11-10T06:11:38.714Z,77.49
2018-11-10T06:14:07.108Z,78.15
2018-11-10T06:16:35.283Z,77.77
2018-11-10T06:19:03.473Z,77.56
2018-11-10T06:21:31.699Z,78.36
2018-11-10T06:23:59.847Z,77.76
2018-11-10T06:26:28.676Z,78.33
2018-11-10T06:28:56.869Z,78.64
2018-11-10T06:31:25.029Z,78.73
2018-11-10T06:33:53.266Z,79.51
2018-11-10T06:36:21.704Z,79.42
2018-11-10T06:38:49.879Z,80.21
2018-11-10T06:41:18.208Z,80.22
2018-11-10T06:43:46.280Z,80.33
2018-11-10T06:46:14.451Z,80.01
2018-11-10T06:48:42.719Z,80.30
2018-11-10T06:51:10.910Z,80.97
2018-11-10T06:53:39.123Z,81.76
2018-11-10T06:56:07.411Z,81.19
2018-11-10T06:58:35.563Z,81.79
2018-11-10T07:01:03.746Z,81.13
2018-11-10T07:03:31.960Z,81.61
2018-11-10T07:06:00.091Z,82.39
2018-11-10T07:08:28.247Z,82.19
2018-11-10T07:10:56.409Z,81.62
2018-11-10T07:13:24.563Z,81.85
2018-11-10T07:15:52.729Z,81.83
2018-11-10T07:18:20.891Z,82.47
2018-11-10T07:20:49.050Z,81.87
2018-11-10T07:23:17.198Z,82.28
2018-11-10T07:25:45.347Z,82.62
2018-11-10T07:28:13.563Z,82.88
2018-11-10T07:30:41.698Z,83.22
2018-11-10T07:33:09.900Z,83.03
2018-11-10T07:35:38.083Z,83.58
2018-11-10T07:38:06.296Z,83.65
2018-11-10T07:40:34.492Z,84.35
2018-11-10T07:43:02.716Z,83.67
2018-11-10T07:45:30.825Z,84.33
2018-11-10T07:47:58.959Z,83.48
2018-11-10T07:50:27.123Z,83.43
2018-11-10T07:52:55.287Z,84.98
2018-11-10T07:55:23.443Z,84.65
2018-11-10T07:57:51.591Z,84.50
2018-11-10T08:00:19.755Z,84.86
2018-11-10T08:02:47.935Z,84.45
2018-11-10T08:05:16.560Z,84.61
2018-11-10T08:07:45.154Z,84.77
2018-11-10T08:10:14.128Z,84.69
2018-11-10T08:12:42.276Z,85.01
2018-11-10T08:15:16.604Z,84.88
2018-11-10T08:17:44.795Z,84.68
2018-11-10T08:20:13.410Z,83.89
2018-11-10T08:22:41.546Z,84.61
2018-11-10T08:25:11.806Z,84.55
2018-11-10T08:27:39.936Z,83.89
2018-11-10T08:30:09.860Z,84.13
2018-11-10T08:32:37.999Z,84.19
2018-11-10T08:35:06.854Z,84.59
2018-11-10T08:37:35.028Z,83.40
2018-11-10T08:40:03.200Z,84.31
2018-11-10T08:42:31.368Z,83.41
2018-11-10T08:44:59.510Z,84.10
2018-11-10T08:47:27.675Z,83.67
2018-11-10T08:49:55.875Z,83.87
2018-11-10T08:52:24.112Z,83.36
2018-11-10T08:54:52.254Z,83.56
2018-11-10T08:57:20.465Z,83.40
2018-11-10T08:59:48.650Z,84.10
2018-11-10T09:02:16.811Z,84.09
2018-11-10T09:04:45.007Z,83.77
2018-11-10T09:07:13.202Z,84.07
2018-11-10T09:09:41.429Z,84.39
2018-11-10T09:12:10.226Z,84.06
2018-11-10T09:14:38.379Z,83.33
2018-11-10T09:17:06.567Z,83.09
2018-11-10T09:19:34.706Z,83.81
2018-11-10T09:22:02.867Z,83.14
2018-11-10T09:24:31.023Z,83.15
2018-11-10T09:26:59.214Z,83.57
2018-11-10T09:29:27.367Z,83.08
2018-11-10T09:31:55.535Z,83.25
2018-11-10T09:34:23.691Z,84.07
2018-11-10T09:36:51.875Z,84.06
2018-11-10T09:39:20.054Z,83.39
2018-11-10T09:41:48.238Z,83.67
2018-11-10T09:44:16.347Z,84.68
2018-11-10T09:46:44.511Z,84.46
2018-11-10T09:49:12.684Z,83.39
2018-11-10T09:51:40.822Z,83.69
2018-11-10T09:54:08.975Z,84.05
2018-11-10T09:56:37.223Z,84.06
2018-11-10T09:59:05.763Z,84.30
2018-11-10T10:01:34.129Z,84.89
2018-11-10T10:04:02.135Z,85.18
2018-11-10T10:06:30.325Z,84.62
2018-11-10T10:08:58.550Z,85.41
2018-11-10T10:11:26.667Z,85.34
2018-11-10T10:13:54.819Z,85.29
2018-11-10T10:16:23.139Z,86.02
2018-11-10T10:18:51.163Z,85.55
2018-11-10T10:21:19.338Z,85.98
2018-11-10T10:23:47.499Z,85.67
2018-11-10T10:26:15.690Z,85.84
2018-11-10T10:28:47.436Z,86.52
2018-11-10T10:31:15.679Z,86.31
2018-11-10T10:33:44.783Z,86.61
2018-11-10T10:36:12.938Z,86.58
2018-11-10T10:38:41.128Z,86.41
2018-11-10T10:41:09.270Z,86.85
2018-11-10T10:43:37.482Z,86.82
2018-11-10T10:46:05.662Z,87.64
2018-11-10T10:48:33.853Z,86.74
2018-11-10T10:51:02.027Z,87.17
2018-11-10T10:53:30.185Z,87.15
2018-11-10T10:55:58.450Z,88.16
2018-11-10T10:58:26.575Z,88.19
2018-11-10T11:01:00.011Z,87.36
2018-11-10T11:03:43.514Z,88.50
2018-11-10T11:06:11.721Z,88.15
2018-11-10T11:08:39.974Z,88.78
2018-11-10T11:11:08.240Z,88.75
2018-11-10T11:13:36.596Z,87.98
2018-11-10T11:16:05.176Z,88.19
2018-11-10T11:18:33.295Z,88.78
2018-11-10T11:21:01.449Z,88.18
2018-11-10T11:23:29.658Z,88.82
2018-11-10T11:25:57.823Z,88.04
2018-11-10T11:28:26.000Z,89.01
2018-11-10T11:30:54.163Z,89.01
2018-11-10T11:33:22.339Z,88.38
2018-11-10T11:35:50.555Z,89.11
2018-11-10T11:38:18.734Z,88.47
2018-11-10T11:40:46.872Z,89.03
2018-11-10T11:43:15.084Z,88.60
2018-11-10T11:45:43.297Z,88.20
2018-11-10T11:48:11.443Z,88.46
2018-11-10T11:50:39.656Z,88.46
2018-11-10T11:53:07.847Z,88.51
2018-11-10T11:55:36.044Z,88.49
2018-11-10T11:58:04.355Z,88.50
2018-11-10T12:00:32.427Z,88.60
2018-11-10T12:03:00.591Z,89.16
2018-11-10T12:05:28.815Z,88.59
2018-11-10T12:07:56.967Z,88.79
2018-11-10T12:10:34.215Z,88.47
2018-11-10T12:13:02.562Z,88.50
2018-11-10T12:15:30.794Z,88.60
2018-11-10T12:17:58.902Z,88.51
2018-11-10T12:20:27.081Z,89.49
2018-11-10T12:23:01.644Z,89.18
2018-11-10T12:25:29.830Z,89.22
2018-11-10T12:27:57.997Z,88.70
2018-11-10T12:30:26.204Z,88.80
2018-11-10T12:32:54.412Z,89.52
2018-11-10T12:35:22.543Z,88.81
2018-11-10T12:37:50.693Z,88.76
2018-11-10T12:40:18.937Z,88.69
2018-11-10T12:42:47.143Z,89.32
2018-11-10T12:45:15.306Z,88.88
2018-11-10T12:47:43.927Z,89.11
2018-11-10T12:50:13.342Z,89.68
2018-11-10T12:52:42.518Z,89.71
2018-11-10T12:55:11.956Z,89.40
2018-11-10T12:57:40.613Z,90.00
2018-11-10T13:00:09.811Z,89.17
2018-11-10T13:02:38.299Z,89.66
2018-11-10T13:05:07.203Z,89.37
2018-11-10T13:07:35.826Z,88.83
2018-11-10T13:10:04.053Z,89.94
2018-11-10T13:12:32.266Z,89.36
2018-11-10T13:15:00.398Z,90.00
2018-11-10T13:17:28.856Z,89.95
2018-11-10T13:19:56.875Z,89.58
2018-11-10T13:22:25.282Z,90.43
2018-11-10T13:24:53.428Z,89.82
2018-11-10T13:27:21.641Z,90.11
2018-11-10T13:29:49.970Z,89.47
2018-11-10T13:32:19.743Z,89.46
2018-11-10T13:34:49.744Z,90.01
2018-11-10T13:37:18.015Z,90.33
2018-11-10T13:39:46.339Z,90.59
2018-11-10T13:42:14.525Z,90.21
2018-11-10T13:44:46.762Z,89.86
2018-11-10T13:47:19.466Z,90.14
2018-11-10T13:49:47.619Z,89.99
2018-11-10T13:52:16.203Z,90.38
2018-11-10T13:54:43.994Z,89.69
2018-11-10T13:57:12.332Z,89.68
2018-11-10T14:02:15.171Z,90.08
2018-11-10T14:04:50.248Z,90.61
2018-11-10T14:07:18.383Z,90.40
2018-11-10T14:09:46.722Z,90.05
2018-11-10T14:12:14.862Z,90.37
2018-11-10T14:14:43.006Z,89.66
2018-11-10T14:17:11.161Z,89.84
2018-11-10T14:19:39.339Z,90.35
2018-11-10T14:22:07.509Z,90.32
2018-11-10T14:24:35.673Z,90.10
2018-11-10T14:27:03.807Z,89.52
2018-11-10T14:29:35.974Z,89.41
2018-11-10T14:32:04.231Z,90.23
2018-11-10T14:34:32.379Z,89.40
2018-11-10T14:37:00.564Z,89.47
2018-11-10T14:39:28.783Z,90.22
2018-11-10T14:41:56.939Z,89.61
2018-11-10T14:44:25.108Z,90.35
2018-11-10T14:46:53.243Z,90.56
2018-11-10T14:49:21.452Z,89.89
2018-11-10T14:51:49.624Z,90.47
2018-11-10T14:54:17.772Z,90.73
2018-11-10T14:56:45.921Z,89.85
2018-11-10T14:59:14.107Z,89.97
2018-11-10T15:01:42.315Z,90.71
2018-11-10T15:04:10.521Z,89.71
2018-11-10T15:06:38.667Z,89.74
2018-11-10T15:09:07.596Z,89.63
2018-11-10T15:11:35.790Z,90.26
2018-11-10T15:14:04.002Z,89.52
2018-11-10T15:16:32.240Z,89.38
2018-11-10T15:19:00.435Z,89.02
2018-11-10T15:21:28.569Z,90.02
2018-11-10T15:23:56.744Z,89.56
2018-11-10T15:26:24.928Z,89.60
2018-11-10T15:28:53.160Z,88.83
2018-11-10T15:31:21.294Z,89.30
2018-11-10T15:33:49.451Z,89.54
2018-11-10T15:36:17.618Z,89.16
2018-11-10T15:38:45.788Z,89.23
2018-11-10T15:41:13.931Z,89.40
2018-11-10T15:43:42.227Z,89.23
2018-11-10T15:46:10.427Z,88.56
2018-11-10T15:48:38.915Z,89.09
2018-11-10T15:51:07.130Z,87.63
2018-11-10T15:53:35.267Z,87.61
2018-11-10T15:56:03.404Z,88.28
2018-11-10T15:58:31.588Z,88.12
2018-11-10T16:00:59.795Z,87.59
2018-11-10T16:03:27.930Z,87.12
2018-11-10T16:05:56.130Z,86.62
2018-11-10T16:08:24.287Z,87.42
2018-11-10T16:10:52.430Z,86.13
2018-11-10T16:13:20.576Z,85.70
2018-11-10T16:15:48.752Z,85.86
2018-11-10T16:18:16.880Z,85.74
2018-11-10T16:20:45.276Z,86.61
2018-11-10T16:23:13.414Z,87.02
2018-11-10T16:25:41.597Z,85.67
2018-11-10T16:28:09.778Z,85.90
2018-11-10T16:30:37.975Z,84.88
2018-11-10T16:33:06.232Z,83.91
2018-11-10T16:35:34.386Z,84.80
2018-11-10T16:38:02.552Z,84.53
2018-11-10T16:40:30.674Z,84.26
2018-11-10T16:42:58.830Z,83.40
2018-11-10T16:45:27.003Z,84.02
2018-11-10T16:47:55.215Z,84.04
2018-11-10T16:50:23.368Z,84.12
2018-11-10T16:52:51.518Z,83.26
2018-11-10T16:55:19.742Z,83.92
2018-11-10T16:57:47.842Z,84.29
2018-11-10T17:00:17.456Z,83.48
2018-11-10T17:02:45.714Z,83.72
2018-11-10T17:05:13.924Z,83.10
2018-11-10T17:07:42.063Z,82.86
2018-11-10T17:10:12.654Z,83.55
2018-11-10T17:12:41.115Z,82.62
2018-11-10T17:15:09.680Z,83.28
2018-11-10T17:17:38.163Z,84.01
2018-11-10T17:20:08.367Z,83.74
2018-11-10T17:22:36.900Z,83.14
2018-11-10T17:25:05.476Z,83.36
2018-11-10T17:27:33.643Z,83.97
2018-11-10T17:30:01.844Z,84.42
2018-11-10T17:32:29.972Z,84.19
2018-11-10T17:34:58.194Z,84.06
2018-11-10T17:37:26.415Z,84.28
2018-11-10T17:39:54.652Z,84.07
2018-11-10T17:42:22.702Z,84.22
2018-11-10T17:44:50.857Z,83.46
2018-11-10T17:47:19.020Z,83.63
2018-11-10T17:49:47.219Z,83.45
2018-11-10T17:52:15.449Z,83.36
2018-11-10T17:54:43.561Z,83.22
2018-11-10T17:57:11.711Z,83.25
2018-11-10T17:59:39.864Z,83.45
2018-11-10T18:02:08.143Z,83.49
2018-11-10T18:04:36.175Z,83.87
2018-11-10T18:07:04.343Z,83.81
2018-11-10T18:09:32.487Z,83.25
2018-11-10T18:12:00.679Z,83.58
2018-11-10T18:14:28.823Z,83.12
2018-11-10T18:16:56.941Z,82.95
2018-11-10T18:19:25.087Z,84.01
2018-11-10T18:21:53.264Z,83.03
2018-11-10T18:24:21.423Z,84.00
2018-11-10T18:26:49.596Z,83.58
2018-11-10T18:29:17.717Z,83.69
2018-11-10T18:31:45.858Z,83.74
2018-11-10T18:34:14.471Z,83.79
2018-11-10T18:36:42.666Z,82.99
2018-11-10T18:39:11.107Z,83.36
2018-11-10T18:41:39.548Z,83.47
2018-11-10T18:44:08.307Z,84.84
2018-11-10T18:46:36.756Z,85.17
2018-11-10T18:49:04.951Z,85.64
2018-11-10T18:51:33.141Z,85.68
2018-11-10T18:54:01.295Z,85.45
2018-11-10T18:56:31.857Z,86.36
2018-11-10T18:59:00.131Z,86.62
2018-11-10T19:01:29.273Z,86.35
2018-11-10T19:03:58.644Z,86.68
2018-11-10T19:06:26.841Z,87.05
2018-11-10T19:08:54.910Z,86.97
2018-11-10T19:11:23.074Z,87.62
2018-11-10T19:13:51.285Z,87.51
2018-11-10T19:16:20.530Z,88.01
2018-11-10T19:18:48.868Z,88.37
2018-11-10T19:21:17.020Z,88.74
2018-11-10T19:23:45.167Z,88.19
2018-11-10T19:26:13.347Z,88.78
2018-11-10T19:28:41.777Z,88.55
2018-11-10T19:31:12.850Z,89.17
2018-11-10T19:33:41.345Z,89.14
2018-11-10T19:36:09.504Z,89.24
2018-11-10T19:38:37.639Z,89.30
2018-11-10T19:41:05.898Z,89.50
2018-11-10T19:43:37.432Z,89.56
2018-11-10T19:46:06.196Z,89.56
2018-11-10T19:48:34.394Z,90.16
2018-11-10T19:51:07.219Z,90.44
2018-11-10T19:53:35.361Z,90.59
2018-11-10T19:56:03.655Z,89.93
2018-11-10T19:58:31.837Z,90.82
2018-11-10T20:01:00.076Z,90.69
2018-11-10T20:03:28.231Z,89.68
2018-11-10T20:05:59.411Z,90.97
2018-11-10T20:08:27.614Z,91.25
2018-11-10T20:10:56.011Z,90.67
2018-11-10T20:13:24.265Z,91.20
2018-11-10T20:15:52.421Z,90.70
2018-11-10T20:18:20.614Z,90.43
2018-11-10T20:20:48.770Z,91.18
2018-11-10T20:23:20.072Z,90.85
2018-11-10T20:25:48.501Z,90.67
2018-11-10T20:28:16.669Z,90.72
2018-11-10T20:30:44.850Z,91.10
2018-11-10T20:33:13.051Z,91.07
2018-11-10T20:35:43.533Z,90.52
2018-11-10T20:38:11.775Z,91.05
2018-11-10T20:40:39.990Z,91.70
2018-11-10T20:43:08.220Z,91.44
2018-11-10T20:45:36.371Z,91.92
2018-11-10T20:48:04.823Z,91.38
2018-11-10T20:50:33.060Z,90.72
2018-11-10T20:53:01.594Z,91.33
2018-11-10T20:55:30.303Z,91.70
2018-11-10T20:57:58.434Z,91.75
2018-11-10T21:00:26.624Z,90.73
2018-11-10T21:02:54.770Z,91.74
2018-11-10T21:05:22.941Z,90.88
2018-11-10T21:07:51.116Z,91.86
2018-11-10T21:10:20.843Z,90.56
2018-11-10T21:12:50.502Z,91.39
2018-11-10T21:15:22.494Z,91.43
2018-11-10T21:17:50.764Z,90.84
2018-11-10T21:20:19.034Z,91.11
2018-11-10T21:22:49.721Z,92.00
2018-11-10T21:25:18.450Z,91.43
2018-11-10T21:27:47.103Z,90.87
2018-11-10T21:30:16.971Z,90.86
2018-11-10T21:32:46.179Z,90.83
2018-11-10T21:35:14.581Z,90.91
2018-11-10T21:37:42.584Z,91.60
2018-11-10T21:40:15.941Z,91.08
2018-11-10T21:42:44.425Z,91.42
2018-11-10T21:45:14.177Z,90.99
2018-11-10T21:47:42.406Z,91.21
2018-11-10T21:50:14.783Z,91.55
2018-11-10T21:52:43.813Z,90.95
2018-11-10T21:55:14.331Z,91.33
2018-11-10T21:57:43.211Z,90.68
2018-11-10T22:00:13.031Z,91.45
2018-11-10T22:02:41.969Z,91.55
2018-11-10T22:05:10.343Z,91.19
2018-11-10T22:07:38.679Z,91.68
2018-11-10T22:10:08.492Z,91.41
2018-11-10T22:12:36.858Z,90.66
2018-11-10T22:15:06.432Z,91.04
2018-11-10T22:17:34.643Z,90.59
2018-11-10T22:20:02.893Z,91.14
2018-11-10T22:22:31.184Z,90.41
2018-11-10T22:24:59.311Z,91.29
2018-11-10T22:27:27.598Z,90.54
2018-11-10T22:29:55.868Z,90.49
2018-11-10T22:32:24.098Z,90.11
2018-11-10T22:34:52.282Z,90.94
2018-11-10T22:37:20.485Z,90.19
2018-11-10T22:39:48.656Z,91.01
2018-11-10T22:42:16.826Z,91.11
2018-11-10T22:44:45.007Z,90.23
2018-11-10T22:47:13.201Z,90.77
2018-11-10T22:49:41.369Z,90.04
2018-11-10T22:52:09.607Z,90.63
2018-11-10T22:54:37.787Z,90.51
2018-11-10T22:57:06.291Z,89.63
2018-11-10T22:59:34.438Z,89.58
2018-11-10T23:02:02.586Z,89.35
2018-11-10T23:04:30.747Z,89.97
2018-11-10T23:06:58.925Z,89.57
2018-11-10T23:09:27.084Z,90.31
2018-11-10T23:11:55.274Z,89.66
2018-11-10T23:14:23.431Z,89.93
2018-11-10T23:16:51.582Z,89.81
2018-11-10T23:19:19.794Z,88.89
2018-11-10T23:21:47.952Z,89.08
2018-11-10T23:24:16.090Z,89.94
2018-11-10T23:26:44.231Z,88.88
2018-11-10T23:29:12.392Z,88.71
2018-11-10T23:31:41.057Z,89.38
2018-11-10T23:34:09.267Z,88.59
2018-11-10T23:36:37.427Z,88.60
2018-11-10T23:39:09.082Z,89.04
2018-11-10T23:41:37.750Z,88.28
2018-11-10T23:44:05.933Z,88.50
2018-11-10T23:46:34.070Z,88.55
2018-11-10T23:49:02.222Z,88.63
2018-11-10T23:51:30.378Z,88.46
2018-11-10T23:53:58.593Z,87.67
2018-11-10T23:56:26.724Z,88.01
2018-11-10T23:58:54.872Z,88.17
